Time;durP1;ratioP1;P1;durP2;ratioP2;P2;SDS_P1;SDS_P2;PMS_P1;PMS_P2;Temp;Humidity;BMP_temperature;BMP_pressure;BME280_temperature;BME280_humidity;BME280_pressure;Samples;Min_cycle;Max_cycle;Signal;HPM_P1;HPM_P2
2021/08/31 00:00:10;;;;;;;13.90;10.13;;;15.50;99.90;;;;;;4960758;28;20180;-82
2021/08/31 00:02:35;;;;;;;13.53;9.90;;;15.50;99.90;;;;;;4961804;28;20185;-82
2021/08/31 00:05:01;;;;;;;11.70;9.17;;;15.40;99.90;;;;;;4977771;28;20231;-82
2021/08/31 00:07:26;;;;;;;15.20;10.33;;;15.40;99.90;;;;;;4977395;28;20287;-82
2021/08/31 00:09:52;;;;;;;12.13;9.73;;;15.40;99.90;;;;;;4961186;28;20555;-82
2021/08/31 00:12:17;;;;;;;11.00;9.47;;;15.40;99.90;;;;;;4976762;28;20177;-82
2021/08/31 00:14:43;;;;;;;12.83;9.87;;;15.40;99.90;;;;;;4960991;28;20199;-82
2021/08/31 00:17:09;;;;;;;12.53;10.03;;;15.40;99.90;;;;;;4961216;28;20173;-82
2021/08/31 00:19:35;;;;;;;13.07;10.47;;;15.40;99.90;;;;;;4961001;28;20192;-82
2021/08/31 00:22:01;;;;;;;13.40;10.23;;;15.40;99.90;;;;;;4977284;28;20192;-82
2021/08/31 00:24:26;;;;;;;13.20;9.93;;;15.40;99.90;;;;;;4977291;28;20244;-82
2021/08/31 00:26:52;;;;;;;12.80;10.10;;;15.40;99.90;;;;;;4961178;28;20188;-82
2021/08/31 00:29:17;;;;;;;14.80;10.27;;;15.40;99.90;;;;;;4960733;28;20185;-82
2021/08/31 00:31:43;;;;;;;14.33;10.70;;;15.40;99.90;;;;;;4960898;28;20180;-82
2021/08/31 00:34:08;;;;;;;13.37;10.10;;;15.40;99.90;;;;;;4960699;28;20235;-82
2021/08/31 00:36:34;;;;;;;14.07;10.17;;;15.40;99.90;;;;;;4960716;28;20181;-82
2021/08/31 00:39:00;;;;;;;13.87;10.37;;;15.40;99.90;;;;;;4960554;28;20208;-82
2021/08/31 00:41:25;;;;;;;13.63;10.90;;;15.40;99.90;;;;;;4976734;28;20212;-82
2021/08/31 00:43:51;;;;;;;13.77;10.17;;;15.40;99.90;;;;;;4960432;28;20185;-82
2021/08/31 00:46:18;;;;;;;13.60;11.30;;;15.40;99.90;;;;;;4960832;28;20291;-82
2021/08/31 00:48:47;;;;;;;13.63;10.03;;;15.40;99.90;;;;;;4960287;28;20292;-82
2021/08/31 00:51:13;;;;;;;12.77;9.93;;;15.50;99.90;;;;;;4976937;28;20211;-82
2021/08/31 00:53:39;;;;;;;14.20;10.67;;;15.40;99.90;;;;;;4960368;28;20692;-82
2021/08/31 00:56:05;;;;;;;12.83;10.67;;;15.40;99.90;;;;;;4960294;28;20605;-82
2021/08/31 00:58:34;;;;;;;15.10;10.80;;;15.40;99.90;;;;;;4960485;28;20224;-82
2021/08/31 01:00:59;;;;;;;13.37;10.80;;;15.40;99.90;;;;;;4960104;28;20181;-82
2021/08/31 01:03:26;;;;;;;15.10;11.00;;;15.50;99.90;;;;;;4960138;28;20260;-81
2021/08/31 01:05:51;;;;;;;12.50;10.13;;;15.50;99.90;;;;;;4958996;28;20235;-82
2021/08/31 01:08:17;;;;;;;15.87;10.57;;;15.50;99.90;;;;;;4960323;28;20235;-82
2021/08/31 01:10:43;;;;;;;14.60;10.80;;;15.50;99.90;;;;;;4959808;28;20219;-82
2021/08/31 01:13:08;;;;;;;16.70;11.23;;;15.50;99.90;;;;;;4975801;28;20244;-82
2021/08/31 01:15:34;;;;;;;14.60;10.93;;;15.40;99.90;;;;;;4975905;28;20185;-82
2021/08/31 01:18:19;;;;;;;14.67;11.30;;;15.50;99.90;;;;;;4960030;28;20208;-82
2021/08/31 01:20:46;;;;;;;15.07;11.53;;;15.50;99.90;;;;;;4975989;28;20188;-82
2021/08/31 01:23:12;;;;;;;14.10;10.97;;;15.50;99.90;;;;;;4976265;28;20192;-83
2021/08/31 01:25:38;;;;;;;16.33;11.13;;;15.40;99.90;;;;;;4960058;28;20671;-82
2021/08/31 01:28:04;;;;;;;13.73;11.00;;;15.40;99.90;;;;;;4959769;28;20197;-82
2021/08/31 01:30:30;;;;;;;15.13;11.50;;;15.40;99.90;;;;;;4959622;28;20192;-81
2021/08/31 01:32:56;;;;;;;14.40;10.87;;;15.40;99.90;;;;;;4975540;28;20420;-82
2021/08/31 01:35:21;;;;;;;15.03;11.23;;;15.40;99.90;;;;;;4959813;28;20177;-82
2021/08/31 01:37:47;;;;;;;14.93;11.23;;;15.40;99.90;;;;;;4959592;28;20247;-82
2021/08/31 01:40:13;;;;;;;16.23;11.77;;;15.40;99.90;;;;;;4959244;28;20546;-82
2021/08/31 01:42:38;;;;;;;15.60;12.30;;;15.40;99.90;;;;;;4975561;28;20546;-82
2021/08/31 01:45:04;;;;;;;15.83;11.80;;;15.40;99.90;;;;;;4959561;28;20184;-82
2021/08/31 01:47:30;;;;;;;16.03;12.03;;;15.40;99.90;;;;;;4959496;28;20220;-82
2021/08/31 01:49:55;;;;;;;15.13;11.23;;;15.40;99.90;;;;;;4959449;28;20180;-82
2021/08/31 01:52:21;;;;;;;16.30;11.77;;;15.40;99.90;;;;;;4975409;28;20173;-82
2021/08/31 01:54:46;;;;;;;15.57;11.80;;;15.30;99.90;;;;;;4987835;28;20296;-82
2021/08/31 01:57:12;;;;;;;15.50;11.80;;;15.40;99.90;;;;;;4993850;28;20203;-82
2021/08/31 01:59:38;;;;;;;15.90;11.57;;;15.30;99.90;;;;;;5010866;28;20180;-83
2021/08/31 02:02:03;;;;;;;17.50;11.70;;;15.30;99.90;;;;;;4994630;28;20230;-82
2021/08/31 02:04:32;;;;;;;19.87;12.00;;;15.30;99.90;;;;;;4994458;28;20180;-82
2021/08/31 02:06:58;;;;;;;16.23;12.57;;;15.30;99.90;;;;;;4994585;28;20258;-82
2021/08/31 02:09:24;;;;;;;19.37;12.60;;;15.30;99.90;;;;;;5038151;23;20241;-79
2021/08/31 02:11:49;;;;;;;15.53;12.17;;;15.30;99.90;;;;;;4999811;28;20262;-79
2021/08/31 02:14:15;;;;;;;15.73;11.93;;;15.20;99.90;;;;;;5014803;28;20239;-78
2021/08/31 02:16:41;;;;;;;18.27;12.60;;;15.20;99.90;;;;;;5015287;28;20198;-79
2021/08/31 02:19:06;;;;;;;15.23;12.83;;;15.20;99.90;;;;;;4998697;28;20207;-79
2021/08/31 02:21:32;;;;;;;14.30;12.47;;;15.10;99.90;;;;;;4998482;28;20183;-79
2021/08/31 02:23:57;;;;;;;15.53;12.47;;;15.20;99.90;;;;;;4982502;28;20557;-78
2021/08/31 02:26:23;;;;;;;19.73;12.87;;;15.10;99.90;;;;;;4998905;28;20259;-79
2021/08/31 02:28:49;;;;;;;17.03;13.33;;;15.10;99.90;;;;;;4982697;28;20207;-79
2021/08/31 02:31:14;;;;;;;17.57;11.63;;;15.10;99.90;;;;;;4982474;28;20176;-79
2021/08/31 02:33:40;;;;;;;17.10;12.53;;;15.10;99.90;;;;;;4998095;28;20293;-79
2021/08/31 02:36:05;;;;;;;16.63;12.37;;;15.10;99.90;;;;;;4981762;28;20184;-79
2021/08/31 02:38:31;;;;;;;21.20;13.17;;;15.00;99.90;;;;;;4982451;28;20199;-79
2021/08/31 02:40:56;;;;;;;16.10;12.63;;;15.00;99.90;;;;;;4981995;28;20176;-79
2021/08/31 02:43:22;;;;;;;17.60;12.93;;;15.00;99.90;;;;;;4999216;28;20233;-79
2021/08/31 02:45:47;;;;;;;18.80;12.53;;;14.90;99.90;;;;;;4982681;28;20183;-79
2021/08/31 02:48:13;;;;;;;16.30;13.43;;;14.90;99.90;;;;;;4998397;28;20222;-79
2021/08/31 02:50:38;;;;;;;16.23;13.10;;;14.90;99.90;;;;;;4981611;28;20249;-79
2021/08/31 02:53:04;;;;;;;17.03;12.87;;;14.80;99.90;;;;;;4981623;28;20203;-79
2021/08/31 02:55:29;;;;;;;17.27;12.77;;;14.80;99.90;;;;;;4981827;28;20192;-79
2021/08/31 02:57:55;;;;;;;18.53;13.47;;;14.70;99.90;;;;;;4981640;28;20196;-79
2021/08/31 03:00:28;;;;;;;18.50;13.67;;;14.70;99.90;;;;;;4982005;28;20269;-79
2021/08/31 03:02:54;;;;;;;20.53;13.57;;;14.70;99.90;;;;;;4999228;28;20186;-79
2021/08/31 03:05:19;;;;;;;17.83;13.17;;;14.70;99.90;;;;;;4998322;28;20552;-79
2021/08/31 03:07:45;;;;;;;18.00;13.57;;;14.60;99.90;;;;;;4981318;28;20588;-78
2021/08/31 03:10:11;;;;;;;18.23;13.20;;;14.60;99.90;;;;;;4981366;28;20171;-79
2021/08/31 03:12:37;;;;;;;15.97;13.27;;;14.50;99.90;;;;;;5013868;28;20255;-79
2021/08/31 03:15:03;;;;;;;18.63;13.00;;;14.50;99.90;;;;;;4981102;28;20548;-79
2021/08/31 03:17:29;;;;;;;17.30;13.53;;;14.50;99.90;;;;;;4981937;28;20176;-78
2021/08/31 03:19:54;;;;;;;16.93;13.17;;;14.40;99.90;;;;;;4981132;28;20230;-79
2021/08/31 03:22:20;;;;;;;16.50;13.33;;;14.40;99.90;;;;;;4997334;28;20229;-79
2021/08/31 03:24:45;;;;;;;19.27;13.60;;;14.40;99.90;;;;;;4981236;28;20189;-79
2021/08/31 03:27:11;;;;;;;20.03;13.20;;;14.50;99.90;;;;;;4997968;28;20191;-78
2021/08/31 03:29:36;;;;;;;22.23;13.90;;;14.40;99.90;;;;;;4996220;28;20196;-79
2021/08/31 03:32:02;;;;;;;18.07;13.27;;;14.40;99.90;;;;;;5013883;28;20175;-79
2021/08/31 03:34:28;;;;;;;18.17;13.70;;;14.50;99.90;;;;;;4997408;28;20203;-79
2021/08/31 03:36:53;;;;;;;16.83;13.13;;;14.50;99.90;;;;;;4985906;28;20180;-78
2021/08/31 03:39:19;;;;;;;19.30;13.83;;;14.40;99.90;;;;;;4986342;28;20219;-79
2021/08/31 03:41:44;;;;;;;17.83;13.37;;;14.50;99.90;;;;;;4986480;28;20183;-79
2021/08/31 03:44:10;;;;;;;19.97;13.90;;;14.40;99.90;;;;;;5020263;28;20186;-78
2021/08/31 03:46:35;;;;;;;15.37;12.37;;;14.40;99.90;;;;;;5001709;28;20210;-78
2021/08/31 03:49:01;;;;;;;18.17;13.43;;;14.30;99.90;;;;;;4985729;28;20203;-79
2021/08/31 03:51:27;;;;;;;22.23;14.93;;;14.30;99.90;;;;;;4986713;28;20187;-79
2021/08/31 03:53:52;;;;;;;21.10;13.30;;;14.30;99.90;;;;;;5003706;28;20207;-79
2021/08/31 03:56:18;;;;;;;17.67;13.50;;;14.20;99.90;;;;;;4986411;28;20186;-79
2021/08/31 03:58:43;;;;;;;21.80;13.77;;;14.20;99.90;;;;;;4983090;28;20192;-79
2021/08/31 04:01:09;;;;;;;18.40;13.17;;;14.20;99.90;;;;;;4999339;28;20248;-79
2021/08/31 04:03:34;;;;;;;18.17;13.43;;;14.20;99.90;;;;;;4998892;28;20168;-79
2021/08/31 04:06:00;;;;;;;19.03;14.47;;;14.20;99.90;;;;;;5004038;28;20287;-79
2021/08/31 04:08:25;;;;;;;20.23;15.03;;;14.20;99.90;;;;;;5000147;28;20234;-79
2021/08/31 04:10:51;;;;;;;24.37;15.83;;;14.10;99.90;;;;;;4983649;28;20183;-79
2021/08/31 04:13:18;;;;;;;23.07;16.40;;;14.20;99.90;;;;;;5004634;28;20217;-79
2021/08/31 04:15:47;;;;;;;24.60;16.90;;;14.20;99.90;;;;;;4983123;28;20172;-79
2021/08/31 04:18:13;;;;;;;26.50;17.70;;;14.20;99.90;;;;;;4998656;28;20619;-79
2021/08/31 04:20:38;;;;;;;27.00;17.60;;;14.30;99.90;;;;;;4998613;28;20183;-79
2021/08/31 04:23:04;;;;;;;25.70;17.73;;;14.20;99.90;;;;;;4982860;28;20214;-79
2021/08/31 04:25:29;;;;;;;27.63;19.30;;;14.30;99.90;;;;;;4982973;28;20184;-79
2021/08/31 04:27:55;;;;;;;27.27;18.10;;;14.20;99.90;;;;;;4982550;28;20290;-79
2021/08/31 04:30:20;;;;;;;27.37;18.63;;;14.20;99.90;;;;;;4982418;28;20214;-78
2021/08/31 04:32:46;;;;;;;25.93;18.87;;;14.20;99.90;;;;;;4981606;28;20580;-79
2021/08/31 04:35:12;;;;;;;29.43;19.57;;;14.30;99.90;;;;;;4998528;28;20183;-79
2021/08/31 04:37:37;;;;;;;27.33;19.23;;;14.20;99.90;;;;;;4984378;28;20687;-79
2021/08/31 04:40:03;;;;;;;28.73;19.40;;;14.30;99.90;;;;;;5001165;28;20180;-78
2021/08/31 04:42:28;;;;;;;30.57;20.57;;;14.20;99.90;;;;;;4986959;28;20719;-78
2021/08/31 04:44:54;;;;;;;31.97;20.47;;;14.20;99.90;;;;;;4988204;28;20175;-79
2021/08/31 04:47:20;;;;;;;35.40;21.30;;;14.30;99.90;;;;;;4989316;28;20188;-79
2021/08/31 04:49:46;;;;;;;30.03;20.17;;;14.20;99.90;;;;;;5031151;28;20506;-79
2021/08/31 04:52:12;;;;;;;29.83;20.07;;;14.30;99.90;;;;;;5034718;28;20175;-79
2021/08/31 04:54:38;;;;;;;31.27;20.57;;;14.20;99.90;;;;;;5015892;28;20212;-80
2021/08/31 04:57:03;;;;;;;31.87;19.67;;;14.20;99.90;;;;;;5006626;28;20182;-81
2021/08/31 04:59:29;;;;;;;33.07;19.60;;;14.20;99.90;;;;;;5038319;28;20205;-78
2021/08/31 05:01:54;;;;;;;36.37;20.47;;;14.20;99.90;;;;;;5056938;28;20179;-80
2021/08/31 05:04:20;;;;;;;31.30;19.80;;;14.40;99.90;;;;;;5039612;28;20179;-80
2021/08/31 05:06:46;;;;;;;34.37;19.60;;;14.40;99.90;;;;;;5037909;28;20664;-79
2021/08/31 05:09:11;;;;;;;32.87;18.63;;;14.30;99.90;;;;;;5026207;28;20223;-78
2021/08/31 05:11:37;;;;;;;33.00;19.30;;;14.40;99.90;;;;;;5018663;28;20214;-80
2021/08/31 05:14:02;;;;;;;39.23;19.90;;;14.40;99.90;;;;;;5018708;28;20207;-80
2021/08/31 05:16:28;;;;;;;34.80;20.60;;;14.40;99.90;;;;;;5017080;28;20271;-80
2021/08/31 05:18:55;;;;;;;33.00;20.10;;;14.40;99.90;;;;;;5018612;28;20195;-78
2021/08/31 05:21:21;;;;;;;33.73;20.07;;;14.60;99.90;;;;;;5052320;28;20627;-80
2021/08/31 05:23:46;;;;;;;33.13;19.57;;;14.50;99.90;;;;;;5053454;28;20189;-81
2021/08/31 05:26:12;;;;;;;31.20;19.63;;;14.60;99.90;;;;;;5037351;28;20183;-79
2021/08/31 05:28:37;;;;;;;35.13;19.87;;;14.70;99.90;;;;;;5018972;28;20265;-80
2021/08/31 05:31:03;;;;;;;38.07;20.07;;;14.70;99.90;;;;;;5016410;28;20258;-80
2021/08/31 05:33:28;;;;;;;34.33;20.40;;;14.70;99.90;;;;;;5016409;28;20207;-80
2021/08/31 05:35:54;;;;;;;32.70;19.53;;;14.80;99.90;;;;;;5031701;28;20176;-75
2021/08/31 05:38:19;;;;;;;30.23;19.23;;;14.80;99.90;;;;;;5030086;28;20246;-75
2021/08/31 05:40:45;;;;;;;31.03;18.97;;;14.80;99.90;;;;;;5030083;28;20172;-74
2021/08/31 05:43:10;;;;;;;31.10;19.13;;;14.80;99.90;;;;;;5030684;28;20234;-79
2021/08/31 05:45:36;;;;;;;35.00;18.77;;;14.80;99.90;;;;;;5032613;28;20198;-78
2021/08/31 05:48:02;;;;;;;30.73;19.27;;;14.90;99.90;;;;;;5020715;28;20203;-79
2021/08/31 05:50:28;;;;;;;32.17;18.77;;;14.90;99.90;;;;;;5040109;28;20183;-79
2021/08/31 05:52:53;;;;;;;31.47;18.40;;;14.90;99.90;;;;;;5034252;28;20714;-76
2021/08/31 05:55:19;;;;;;;30.57;18.80;;;15.00;99.90;;;;;;5034430;28;20175;-76
2021/08/31 05:57:44;;;;;;;29.43;18.03;;;15.00;99.90;;;;;;5035314;28;20199;-80
2021/08/31 06:00:13;;;;;;;30.00;19.00;;;15.00;99.90;;;;;;5038622;28;20178;-81
2021/08/31 06:02:39;;;;;;;30.83;18.63;;;15.10;99.90;;;;;;5043804;28;20191;-79
2021/08/31 06:05:08;;;;;;;33.80;18.30;;;15.10;99.90;;;;;;5027861;28;20225;-78
2021/08/31 06:07:34;;;;;;;27.57;18.43;;;15.20;99.90;;;;;;5035843;28;20186;-79
2021/08/31 06:10:01;;;;;;;34.87;18.93;;;15.30;99.90;;;;;;5039324;28;20183;-79
2021/08/31 06:12:26;;;;;;;30.67;18.87;;;15.40;99.90;;;;;;5045526;28;20782;-79
2021/08/31 06:14:52;;;;;;;29.17;17.17;;;15.50;99.90;;;;;;5046653;28;20206;-79
2021/08/31 06:17:19;;;;;;;30.43;17.40;;;15.60;99.90;;;;;;5053438;28;20179;-79
2021/08/31 06:19:45;;;;;;;27.47;16.50;;;15.60;99.90;;;;;;5036316;28;20179;-78
2021/08/31 06:22:11;;;;;;;26.03;17.83;;;15.70;99.90;;;;;;5038628;28;20182;-79
2021/08/31 06:24:36;;;;;;;27.53;18.13;;;15.90;99.90;;;;;;5035897;28;20189;-80
2021/08/31 06:27:03;;;;;;;29.60;17.60;;;15.90;99.90;;;;;;5035793;28;20194;-79
2021/08/31 06:29:29;;;;;;;32.50;19.27;;;16.00;99.90;;;;;;5019139;28;20286;-80
2021/08/31 06:31:55;;;;;;;28.37;17.07;;;16.00;99.90;;;;;;5052421;28;20717;-79
2021/08/31 06:34:20;;;;;;;24.73;15.70;;;16.00;99.90;;;;;;5034877;28;20707;-77
2021/08/31 06:36:47;;;;;;;27.83;16.97;;;15.90;99.90;;;;;;5035266;28;20183;-80
2021/08/31 06:39:13;;;;;;;26.43;15.97;;;15.90;99.90;;;;;;5051166;28;20237;-81
2021/08/31 06:41:38;;;;;;;26.27;17.03;;;15.90;99.90;;;;;;5033513;28;20183;-79
2021/08/31 06:44:04;;;;;;;28.83;16.83;;;15.80;99.90;;;;;;5032149;28;20190;-77
2021/08/31 06:46:29;;;;;;;23.13;16.07;;;15.80;99.90;;;;;;5051220;28;20175;-77
2021/08/31 06:48:55;;;;;;;26.90;16.23;;;15.80;99.90;;;;;;5034444;28;20579;-80
2021/08/31 06:51:20;;;;;;;24.20;15.70;;;15.80;99.90;;;;;;5033900;28;20190;-77
2021/08/31 06:53:46;;;;;;;25.73;16.70;;;15.80;99.90;;;;;;5050615;28;20203;-76
2021/08/31 06:56:11;;;;;;;27.07;16.90;;;15.80;99.90;;;;;;5050038;28;20174;-77
2021/08/31 06:58:37;;;;;;;24.00;15.80;;;15.80;99.90;;;;;;5033572;28;20280;-76
2021/08/31 07:01:03;;;;;;;23.80;16.30;;;15.80;99.90;;;;;;5035421;28;20214;-76
2021/08/31 07:03:28;;;;;;;24.00;15.50;;;15.90;99.90;;;;;;5035426;28;20179;-76
2021/08/31 07:05:54;;;;;;;23.80;15.57;;;15.80;99.90;;;;;;5047452;28;20285;-76
2021/08/31 07:08:20;;;;;;;27.00;16.27;;;15.80;99.90;;;;;;5032788;28;20254;-75
2021/08/31 07:10:46;;;;;;;24.07;16.03;;;15.80;99.90;;;;;;5016293;28;20183;-75
2021/08/31 07:13:14;;;;;;;25.87;15.63;;;15.90;99.90;;;;;;5015979;28;20219;-75
2021/08/31 07:15:39;;;;;;;24.10;16.07;;;16.00;99.90;;;;;;5014944;28;20218;-75
2021/08/31 07:18:05;;;;;;;23.47;14.80;;;16.00;99.90;;;;;;5031947;28;20210;-75
2021/08/31 07:20:30;;;;;;;23.27;15.33;;;16.00;99.90;;;;;;5031609;28;20180;-75
2021/08/31 07:22:56;;;;;;;21.67;14.67;;;16.00;99.90;;;;;;5032033;28;20175;-75
2021/08/31 07:25:22;;;;;;;20.97;14.00;;;16.00;99.90;;;;;;5032556;28;20186;-75
2021/08/31 07:27:47;;;;;;;23.87;15.97;;;16.10;99.90;;;;;;5031814;28;20210;-75
2021/08/31 07:30:13;;;;;;;22.77;15.00;;;16.10;99.90;;;;;;5030767;28;20203;-75
2021/08/31 07:32:39;;;;;;;22.70;14.60;;;16.10;99.90;;;;;;5039073;28;20190;-78
2021/08/31 07:35:05;;;;;;;20.93;15.20;;;16.10;99.90;;;;;;5035284;28;20191;-75
2021/08/31 07:37:30;;;;;;;22.97;14.77;;;16.10;99.90;;;;;;5030433;28;20213;-76
2021/08/31 07:39:56;;;;;;;21.40;14.73;;;16.20;99.90;;;;;;5053179;28;20175;-76
2021/08/31 07:42:22;;;;;;;22.47;14.43;;;16.30;99.90;;;;;;5032873;28;20183;-76
2021/08/31 07:44:47;;;;;;;21.70;14.73;;;16.30;99.90;;;;;;5038946;28;20186;-77
2021/08/31 07:47:14;;;;;;;22.73;14.87;;;16.40;99.90;;;;;;5048748;28;20542;-76
2021/08/31 07:49:40;;;;;;;18.27;13.77;;;16.40;99.90;;;;;;5017987;28;20199;-77
2021/08/31 07:52:05;;;;;;;23.63;14.67;;;16.50;99.90;;;;;;5017045;28;20222;-76
2021/08/31 07:54:31;;;;;;;21.50;14.50;;;16.50;99.90;;;;;;5019253;28;20229;-75
2021/08/31 07:56:57;;;;;;;23.47;14.00;;;16.60;99.90;;;;;;5034910;28;20178;-75
2021/08/31 07:59:22;;;;;;;19.07;12.97;;;16.70;99.90;;;;;;5019174;28;20195;-75
2021/08/31 08:01:48;;;;;;;19.80;13.60;;;16.80;99.90;;;;;;5035025;28;20659;-75
2021/08/31 08:04:13;;;;;;;21.07;13.60;;;16.90;99.90;;;;;;5019859;28;20184;-76
2021/08/31 08:06:40;;;;;;;17.60;12.50;;;17.00;99.90;;;;;;5018803;28;20663;-76
2021/08/31 08:09:05;;;;;;;17.40;12.57;;;17.10;99.90;;;;;;5050628;22;20771;-83
2021/08/31 08:11:31;;;;;;;18.67;12.77;;;17.50;99.90;;;;;;5001850;28;20178;-84
2021/08/31 08:13:57;;;;;;;18.53;12.07;;;17.80;99.90;;;;;;5018524;28;20696;-85
2021/08/31 08:16:22;;;;;;;16.40;11.83;;;18.00;99.90;;;;;;5005154;28;20206;-83
2021/08/31 08:18:48;;;;;;;15.70;11.27;;;18.20;99.90;;;;;;5005116;28;20256;-82
2021/08/31 08:21:14;;;;;;;17.13;10.50;;;18.40;99.90;;;;;;5021783;28;20197;-83
2021/08/31 08:23:40;;;;;;;13.37;9.83;;;18.70;99.90;;;;;;5021686;28;20567;-83
2021/08/31 08:26:06;;;;;;;15.77;10.43;;;18.90;99.90;;;;;;5021869;28;20179;-83
2021/08/31 08:28:32;;;;;;;12.70;8.63;;;19.00;99.90;;;;;;5021481;28;20195;-82
2021/08/31 08:30:58;;;;;;;13.63;9.30;;;19.10;99.90;;;;;;5021202;28;20576;-84
2021/08/31 08:33:24;;;;;;;11.20;8.37;;;19.20;99.90;;;;;;5021523;28;20320;-84
2021/08/31 08:35:50;;;;;;;13.23;8.13;;;19.50;99.90;;;;;;5022015;28;20185;-84
2021/08/31 08:38:15;;;;;;;9.73;7.50;;;19.70;99.90;;;;;;5021334;28;20222;-84
2021/08/31 08:40:41;;;;;;;10.17;7.43;;;19.70;99.90;;;;;;5021405;28;20205;-84
2021/08/31 08:43:07;;;;;;;10.80;7.60;;;19.60;99.90;;;;;;5020410;28;20179;-83
2021/08/31 08:45:33;;;;;;;10.70;7.73;;;19.40;99.90;;;;;;5020947;28;20187;-82
2021/08/31 08:47:58;;;;;;;9.87;7.37;;;19.20;99.90;;;;;;5021150;28;20221;-84
2021/08/31 08:50:24;;;;;;;12.17;7.80;;;19.20;99.90;;;;;;5020543;28;20179;-84
2021/08/31 08:52:50;;;;;;;10.83;7.73;;;19.10;99.90;;;;;;5020239;28;20186;-83
2021/08/31 08:55:15;;;;;;;11.00;7.13;;;19.10;99.90;;;;;;5020993;28;20175;-83
2021/08/31 08:57:41;;;;;;;11.97;7.87;;;19.10;99.90;;;;;;5020299;28;20174;-83
2021/08/31 09:00:08;;;;;;;9.83;7.63;;;19.00;99.90;;;;;;5020696;28;20560;-83
2021/08/31 09:02:41;;;;;;;11.87;8.17;;;19.20;99.90;;;;;;5020500;28;20179;-84
2021/08/31 09:05:43;;;;;;;12.17;8.17;;;19.60;99.90;;;;;;5037582;28;20638;-84
2021/08/31 09:08:09;;;;;;;11.10;7.53;;;19.90;99.90;;;;;;5016254;28;20228;-82
2021/08/31 09:10:35;;;;;;;10.70;7.80;;;20.10;99.90;;;;;;5020739;28;20167;-84
2021/08/31 09:13:01;;;;;;;10.87;8.13;;;20.10;99.90;;;;;;5020468;28;20848;-83
2021/08/31 09:15:31;;;;;;;10.63;7.60;;;19.80;99.90;;;;;;5021171;28;20190;-84
2021/08/31 09:20:35;;;;;;;11.10;7.63;;;19.30;99.90;;;;;;5038036;28;20190;-82
2021/08/31 09:23:01;;;;;;;9.90;7.93;;;19.20;99.90;;;;;;5020227;28;20240;-84
2021/08/31 09:25:41;;;;;;;12.07;8.23;;;19.20;99.90;;;;;;5020507;28;20242;-84
2021/08/31 09:28:28;;;;;;;10.70;8.43;;;19.10;99.90;;;;;;5016631;28;20195;-86
2021/08/31 09:30:58;;;;;;;10.70;7.53;;;19.10;99.90;;;;;;5010481;28;20180;-82
2021/08/31 09:33:25;;;;;;;10.17;7.73;;;19.10;99.90;;;;;;5034288;28;20187;-82
2021/08/31 09:36:09;;;;;;;9.63;7.13;;;19.40;99.90;;;;;;5036186;28;20175;-82
2021/08/31 09:38:39;;;;;;;8.77;7.07;;;19.90;99.90;;;;;;5017038;28;20203;-81
2021/08/31 09:41:04;;;;;;;8.43;6.90;;;20.10;99.90;;;;;;5003371;28;20206;-83
2021/08/31 09:43:30;;;;;;;9.87;7.27;;;20.20;99.90;;;;;;4994847;28;20183;-82
2021/08/31 09:45:55;;;;;;;8.30;6.47;;;20.20;99.90;;;;;;5015286;28;20180;-83
2021/08/31 09:48:21;;;;;;;8.17;6.23;;;20.00;99.90;;;;;;4999774;28;20211;-85
2021/08/31 09:50:55;;;;;;;9.10;6.40;;;19.90;99.90;;;;;;5018485;28;20539;-81
2021/08/31 09:53:24;;;;;;;8.63;6.20;;;19.80;99.90;;;;;;5004322;28;20199;-81
2021/08/31 09:56:11;;;;;;;8.67;5.63;;;19.60;99.90;;;;;;5020258;28;20179;-81
2021/08/31 09:58:43;;;;;;;9.67;5.83;;;19.40;99.90;;;;;;5037547;28;20211;-80
2021/08/31 10:01:09;;;;;;;7.40;5.77;;;19.20;99.90;;;;;;5021239;28;20186;-81
2021/08/31 10:03:35;;;;;;;8.37;5.90;;;19.20;99.90;;;;;;5021468;28;20563;-80
2021/08/31 10:06:02;;;;;;;7.33;5.70;;;19.30;99.90;;;;;;5036808;28;20234;-80
2021/08/31 10:08:31;;;;;;;11.43;8.97;;;19.40;99.90;;;;;;5020696;28;20348;-81
2021/08/31 10:10:58;;;;;;;7.60;5.97;;;19.60;99.90;;;;;;5021016;28;20275;-81
2021/08/31 10:13:24;;;;;;;7.63;5.90;;;19.90;99.90;;;;;;5037549;28;20678;-82
2021/08/31 10:15:55;;;;;;;8.37;6.30;;;20.20;99.90;;;;;;5037549;28;20171;-81
2021/08/31 10:18:22;;;;;;;8.53;5.37;;;20.40;99.90;;;;;;5021162;28;20270;-80
2021/08/31 10:21:05;;;;;;;8.33;5.50;;;20.50;99.90;;;;;;5021335;28;20228;-81
2021/08/31 10:23:32;;;;;;;7.50;5.37;;;20.70;99.90;;;;;;5011141;28;20187;-81
2021/08/31 10:26:33;;;;;;;7.70;5.17;;;20.80;99.90;;;;;;5004115;28;20316;-81
2021/08/31 10:29:14;;;;;;;6.43;5.00;;;20.90;99.90;;;;;;5005301;28;20209;-82
2021/08/31 10:31:40;;;;;;;8.07;4.93;;;21.10;99.90;;;;;;5023465;28;20278;-81
2021/08/31 10:34:31;;;;;;;5.60;4.57;;;21.00;99.90;;;;;;4998799;28;20210;-82
2021/08/31 10:37:12;;;;;;;7.20;4.97;;;21.00;99.90;;;;;;5034599;28;20206;-81
2021/08/31 10:39:51;;;;;;;5.70;4.37;;;21.00;99.90;;;;;;5035827;28;20297;-81
2021/08/31 10:42:29;;;;;;;7.20;4.00;;;21.00;99.90;;;;;;5032160;28;20234;-81
2021/08/31 10:44:55;;;;;;;6.13;3.67;;;21.20;99.90;;;;;;5019900;28;20184;-82
2021/08/31 10:47:37;;;;;;;4.73;3.70;;;21.30;99.90;;;;;;5016226;28;20187;-83
2021/08/31 10:50:08;;;;;;;6.30;4.07;;;21.40;99.90;;;;;;5002964;28;20183;-80
2021/08/31 10:52:46;;;;;;;4.90;3.80;;;21.60;99.90;;;;;;5039587;28;20179;-81
2021/08/31 10:55:24;;;;;;;4.90;3.67;;;21.70;99.90;;;;;;5037858;28;20189;-80
2021/08/31 10:58:11;;;;;;;4.03;2.93;;;21.50;99.90;;;;;;5037561;28;20178;-81
2021/08/31 11:00:39;;;;;;;3.67;3.30;;;21.30;99.90;;;;;;5006256;28;20175;-80
2021/08/31 11:03:05;;;;;;;4.50;3.30;;;21.00;99.90;;;;;;5036308;28;20183;-80
2021/08/31 11:05:33;;;;;;;4.03;3.17;;;20.80;99.90;;;;;;4999462;28;20176;-80
2021/08/31 11:08:01;;;;;;;4.70;3.20;;;20.80;99.90;;;;;;5002084;28;20351;-82
2021/08/31 11:10:28;;;;;;;5.80;3.60;;;20.90;99.90;;;;;;5035419;28;20194;-82
2021/08/31 11:12:54;;;;;;;3.90;2.93;;;21.00;99.90;;;;;;5036111;28;20174;-81
2021/08/31 11:15:20;;;;;;;5.80;3.43;;;21.30;99.90;;;;;;5019276;28;20186;-82
2021/08/31 11:17:47;;;;;;;4.60;3.57;;;21.40;99.90;;;;;;5013635;28;20550;-85
2021/08/31 11:20:13;;;;;;;4.80;3.10;;;21.60;99.90;;;;;;5019908;28;20175;-81
2021/08/31 11:22:39;;;;;;;4.17;3.60;;;21.70;99.90;;;;;;5038078;28;20658;-82
2021/08/31 11:25:05;;;;;;;4.80;3.70;;;21.70;99.90;;;;;;5021768;28;20187;-82
2021/08/31 11:27:51;;;;;;;4.50;3.17;;;21.60;99.90;;;;;;5022023;28;20555;-81
2021/08/31 11:30:16;;;;;;;4.10;3.13;;;21.40;99.90;;;;;;5024843;28;20183;-82
2021/08/31 11:32:42;;;;;;;5.20;3.57;;;21.30;99.90;;;;;;5005733;28;20321;-82
2021/08/31 11:35:08;;;;;;;6.73;3.50;;;21.00;99.90;;;;;;4987873;28;20175;-83
2021/08/31 11:37:49;;;;;;;4.00;3.60;;;20.90;99.90;;;;;;4985192;28;20238;-81
2021/08/31 11:40:17;;;;;;;3.93;3.43;;;20.70;99.90;;;;;;5000297;28;20156;-82
2021/08/31 11:42:50;;;;;;;5.83;3.40;;;20.70;99.90;;;;;;4999571;28;20175;-83
2021/08/31 11:45:16;;;;;;;5.73;4.00;;;20.90;99.90;;;;;;4983161;28;20207;-82
2021/08/31 11:47:42;;;;;;;4.50;3.33;;;21.30;99.90;;;;;;4983387;28;20171;-80
2021/08/31 11:50:08;;;;;;;4.47;3.50;;;21.70;99.90;;;;;;4982400;28;20172;-81
2021/08/31 11:52:33;;;;;;;4.50;3.27;;;21.80;99.90;;;;;;4998830;28;20187;-81
2021/08/31 11:54:59;;;;;;;3.50;2.50;;;21.60;99.90;;;;;;4983015;28;20290;-82
2021/08/31 11:57:31;;;;;;;3.80;3.23;;;21.50;99.90;;;;;;4998969;28;20250;-81
2021/08/31 11:59:57;;;;;;;4.30;3.10;;;21.20;99.90;;;;;;4983418;28;20227;-81
2021/08/31 12:02:27;;;;;;;6.37;3.70;;;21.10;99.90;;;;;;4983689;28;20179;-83
2021/08/31 12:04:58;;;;;;;5.00;3.10;;;21.20;99.90;;;;;;4995426;28;20174;-86
2021/08/31 12:07:33;;;;;;;7.93;3.47;;;21.40;99.90;;;;;;5027137;28;20182;-83
2021/08/31 12:10:04;;;;;;;5.50;3.67;;;21.60;99.90;;;;;;4987710;28;20187;-82
2021/08/31 12:12:29;;;;;;;4.10;3.33;;;21.90;99.90;;;;;;4986520;28;20224;-84
2021/08/31 12:14:55;;;;;;;5.00;2.80;;;22.20;99.90;;;;;;5003549;28;20689;-81
2021/08/31 12:17:28;;;;;;;3.40;2.83;;;22.40;99.90;;;;;;4997268;28;20183;-83
2021/08/31 12:20:11;;;;;;;6.73;3.90;;;22.20;99.90;;;;;;5034951;28;20273;-82
2021/08/31 12:22:39;;;;;;;4.40;3.37;;;21.80;99.90;;;;;;4992475;28;20194;-82
2021/08/31 12:25:05;;;;;;;3.93;2.90;;;21.60;99.90;;;;;;5001844;28;20179;-82
2021/08/31 12:27:38;;;;;;;3.93;3.20;;;21.70;99.90;;;;;;5002726;28;20266;-82
2021/08/31 12:30:05;;;;;;;7.27;3.40;;;21.80;99.90;;;;;;4997026;28;20250;-82
2021/08/31 12:32:32;;;;;;;4.80;3.00;;;22.00;99.90;;;;;;5008331;28;20323;-83
2021/08/31 12:35:22;;;;;;;4.23;3.33;;;22.10;99.90;;;;;;5009602;28;20678;-83